Airfield :
LOGIN :

Register | Disclaimer

   EN    FR    IT 

 










Legend :    VFR   Marginal VFR   IFR   Intensive IFR   Very Intensive IFR
Visi :
Ceiling :
>= 8 km
>= 3000ft
5 to 8 km
1000 to 3000 ft
1500m to 5 km
500 to 1000 ft
800 to 1500m
200 to 500 ft
< 800m
< 200 ft
Symbols :   Thunderstorms  Fog  Heavy snow  Heavy precipitations  Wind > 20 kt
SIGMETs :     Misc.  Thunderstorms  Icing  Turbulence  Mountain Waves  Volcanic Ashes






- Airport Elevation : 616 ft
- IATA code : PUF


LFBP - Pau

CURRENT METAR :
  • 111500Z AUTO 06007KT 030V100 CAVOK 32/22 Q1012 TEMPO 3500 TSRA BKN080CB

EXPIRED METARs :
  • 111430Z AUTO 06006KT 030V090 CAVOK 31/22 Q1012 TEMPO 3500 TSRA BKN080CB
  • 111400Z AUTO 04008KT CAVOK 31/23 Q1012 TEMPO 07015G35KT 3500 TSRA BKN080CB
  • 111330Z AUTO 04008KT CAVOK 30/23 Q1012 TEMPO 07015G35KT 3500 TSRA BKN080CB
  • 111300Z AUTO 04009KT CAVOK 30/23 Q1012 TEMPO 07015G35KT 0750 TSRAGR BKN050CB
  • 111230Z AUTO 36006KT 330V030 CAVOK 29/22 Q1012 TEMPO 07015G35KT 0750 TSRAGR BKN050CB

TAF TAF LFBP
Valid from the 11 at 12:00 until the 12 at 12:00 UTC


111100Z 1112/1212 07006KT CAVOK
TEMPO 1112/1115 4500 SHRA BKN070TCU
TEMPO 1114/1115 07015G35KT 0750 TSRAGR BKN050CB
TEMPO 1115/1124 3500 TSRA BKN080CB



MET'MAP, your aeronautical weather chart ! - Copyright ORBIFLY December 2007 - Disclaimer

ORBIFLY MET'MAP TEAM :

Programming & Development : Alexandra Zaïnal
Concept & original design : Baudouin d'Aumeries
Assistance for programming : Marc-Olivier Méhu
Technical & hardware support : Manuel Goepfert

Contact : metmap@orbifly.com




SOURCES & CREDITS :

   NOAA